Charter Quote
Worldwide +1-877-727-2538 Call
Select Language Lang
SAFETY RELIABILITY EXPERIENCE

Neuburg Airport (ETSN) - Jet Charter Services

AIRPORT INFORMATION
ICAOETSN
LOCATIONNeuburg, Germany
FACILITY TYPEAIRPORT
Runway Length (ft) Width (ft) Surface Type Elevation (ft)
27/09 8005 98 ASP 1248.19672

At Paramount Business Jets you can hire chartered private jets to and from Neuburg Airport with as little as 4 hours of notice. All flights booked via Paramount Business Jets are operated by certified direct air carriers that meet and exceed the FAA part 135 and 121 protocol or a foreign equivalent safety authority. Furthermore, Paramount Business Jets subscribes to ARGUS for their third party safety checks of operators, aircraft, and crews prior each and every flight to and from Neuburg Airport and worldwide.

  • Quote a trip using Neuburg Airport or call us 24/7 - 365 days a year at +1-877-727-2538.
Questions? Call +1-877-727-2538

METAR Weather Data at Neuburg Airport, ETSN

STATIONETSN
OBSERVEDWed Jan 23, 22:20 UTC
NOWWed Jan 23, 23:11 UTC
AGE51 min ago
WINDN at 2 mph
VISIBILITY8 miles
CONDITIONSlight snow & mist
CLOUDSmostly cloudy
TEMP21°F (-6°C)
DEWPT19°F (-7°C)
HUMIDITY93%
BAROMETER1000 hPa (29.53 in Hg)
METARETSN 232220Z 36002KT 5000 -SN BR FEW012 BKN023 BKN090 M06/M07 Q1000 BLACKWHT

Call us on +1-877-727-2538 (24 Hours) to Hire a Private Jet or Get a Quick Quote.

Find Airports Near any Location

Processing
...